sensor_id;sensor_type;location;lat;lon;timestamp;P1;durP1;ratioP1;P2;durP2;ratioP2
33952;SDS011;20231;42.710;23.280;2023-02-28T00:00:31;22.10;;;12.38;;
33952;SDS011;20231;42.710;23.280;2023-02-28T00:02:57;19.80;;;11.55;;
33952;SDS011;20231;42.710;23.280;2023-02-28T00:05:24;21.00;;;12.27;;
33952;SDS011;20231;42.710;23.280;2023-02-28T00:07:50;21.65;;;12.65;;
33952;SDS011;20231;42.710;23.280;2023-02-28T00:10:17;21.55;;;12.60;;
33952;SDS011;20231;42.710;23.280;2023-02-28T00:12:46;21.75;;;12.20;;
33952;SDS011;20231;42.710;23.280;2023-02-28T00:15:12;20.67;;;12.88;;
33952;SDS011;20231;42.710;23.280;2023-02-28T00:17:38;24.88;;;13.15;;
33952;SDS011;20231;42.710;23.280;2023-02-28T00:20:04;22.70;;;13.02;;
33952;SDS011;20231;42.710;23.280;2023-02-28T00:22:35;21.23;;;12.70;;
33952;SDS011;20231;42.710;23.280;2023-02-28T00:25:02;25.80;;;12.75;;
33952;SDS011;20231;42.710;23.280;2023-02-28T00:27:28;26.80;;;13.82;;
33952;SDS011;20231;42.710;23.280;2023-02-28T00:29:54;26.42;;;16.27;;
33952;SDS011;20231;42.710;23.280;2023-02-28T00:32:19;28.98;;;15.90;;
33952;SDS011;20231;42.710;23.280;2023-02-28T00:34:45;24.98;;;14.90;;
33952;SDS011;20231;42.710;23.280;2023-02-28T00:37:10;28.92;;;16.20;;
33952;SDS011;20231;42.710;23.280;2023-02-28T00:39:39;25.60;;;16.20;;
33952;SDS011;20231;42.710;23.280;2023-02-28T00:42:05;26.02;;;14.63;;
33952;SDS011;20231;42.710;23.280;2023-02-28T00:44:32;27.48;;;16.00;;
33952;SDS011;20231;42.710;23.280;2023-02-28T00:46:57;26.50;;;14.82;;
33952;SDS011;20231;42.710;23.280;2023-02-28T00:49:23;24.85;;;14.48;;
33952;SDS011;20231;42.710;23.280;2023-02-28T00:51:49;24.65;;;12.85;;
33952;SDS011;20231;42.710;23.280;2023-02-28T00:54:15;21.13;;;12.40;;
33952;SDS011;20231;42.710;23.280;2023-02-28T00:56:41;21.77;;;12.73;;
33952;SDS011;20231;42.710;23.280;2023-02-28T00:59:06;23.92;;;13.32;;
33952;SDS011;20231;42.710;23.280;2023-02-28T01:01:31;23.92;;;14.02;;
33952;SDS011;20231;42.710;23.280;2023-02-28T01:03:57;23.90;;;13.32;;
33952;SDS011;20231;42.710;23.280;2023-02-28T01:06:23;20.55;;;13.23;;
33952;SDS011;20231;42.710;23.280;2023-02-28T01:08:48;20.17;;;13.05;;
33952;SDS011;20231;42.710;23.280;2023-02-28T01:11:15;20.33;;;12.45;;
33952;SDS011;20231;42.710;23.280;2023-02-28T01:13:42;24.67;;;13.40;;
33952;SDS011;20231;42.710;23.280;2023-02-28T01:16:08;21.63;;;13.15;;
33952;SDS011;20231;42.710;23.280;2023-02-28T01:18:34;21.25;;;13.25;;
33952;SDS011;20231;42.710;23.280;2023-02-28T01:21:04;22.40;;;13.27;;
33952;SDS011;20231;42.710;23.280;2023-02-28T01:23:31;25.10;;;13.40;;
33952;SDS011;20231;42.710;23.280;2023-02-28T01:25:57;22.75;;;12.82;;
33952;SDS011;20231;42.710;23.280;2023-02-28T01:28:22;22.08;;;12.90;;
33952;SDS011;20231;42.710;23.280;2023-02-28T01:30:49;24.55;;;14.15;;
33952;SDS011;20231;42.710;23.280;2023-02-28T01:33:15;26.00;;;13.02;;
33952;SDS011;20231;42.710;23.280;2023-02-28T01:35:40;25.38;;;13.45;;
33952;SDS011;20231;42.710;23.280;2023-02-28T01:38:06;22.30;;;12.50;;
33952;SDS011;20231;42.710;23.280;2023-02-28T01:40:31;25.40;;;13.40;;
33952;SDS011;20231;42.710;23.280;2023-02-28T01:42:57;20.58;;;12.73;;
33952;SDS011;20231;42.710;23.280;2023-02-28T01:45:26;20.83;;;12.60;;
33952;SDS011;20231;42.710;23.280;2023-02-28T01:47:54;25.30;;;12.52;;
33952;SDS011;20231;42.710;23.280;2023-02-28T01:50:24;18.52;;;11.82;;
33952;SDS011;20231;42.710;23.280;2023-02-28T01:52:54;24.25;;;12.88;;
33952;SDS011;20231;42.710;23.280;2023-02-28T01:55:23;30.42;;;13.00;;
33952;SDS011;20231;42.710;23.280;2023-02-28T01:57:54;20.77;;;12.25;;
33952;SDS011;20231;42.710;23.280;2023-02-28T02:00:22;25.10;;;12.57;;
33952;SDS011;20231;42.710;23.280;2023-02-28T02:02:51;25.67;;;12.90;;
33952;SDS011;20231;42.710;23.280;2023-02-28T02:05:22;23.88;;;13.13;;
33952;SDS011;20231;42.710;23.280;2023-02-28T02:07:50;27.20;;;13.80;;
33952;SDS011;20231;42.710;23.280;2023-02-28T02:16:34;25.17;;;14.23;;
33952;SDS011;20231;42.710;23.280;2023-02-28T02:35:54;31.15;;;16.15;;
33952;SDS011;20231;42.710;23.280;2023-02-28T02:46:17;32.03;;;15.45;;
33952;SDS011;20231;42.710;23.280;2023-02-28T02:49:05;35.17;;;16.80;;
33952;SDS011;20231;42.710;23.280;2023-02-28T02:51:34;30.02;;;16.52;;
33952;SDS011;20231;42.710;23.280;2023-02-28T02:54:03;35.85;;;18.48;;
33952;SDS011;20231;42.710;23.280;2023-02-28T02:56:33;35.25;;;17.27;;
33952;SDS011;20231;42.710;23.280;2023-02-28T02:59:02;34.67;;;17.20;;
33952;SDS011;20231;42.710;23.280;2023-02-28T03:01:30;51.70;;;19.38;;
33952;SDS011;20231;42.710;23.280;2023-02-28T03:03:57;34.67;;;17.10;;
33952;SDS011;20231;42.710;23.280;2023-02-28T03:06:25;28.75;;;15.32;;
33952;SDS011;20231;42.710;23.280;2023-02-28T03:08:52;28.00;;;15.50;;
33952;SDS011;20231;42.710;23.280;2023-02-28T03:11:17;32.50;;;16.67;;
33952;SDS011;20231;42.710;23.280;2023-02-28T03:13:57;31.13;;;15.70;;
33952;SDS011;20231;42.710;23.280;2023-02-28T03:16:28;34.40;;;16.40;;
33952;SDS011;20231;42.710;23.280;2023-02-28T03:21:47;33.60;;;16.77;;
33952;SDS011;20231;42.710;23.280;2023-02-28T03:24:25;37.53;;;16.88;;
33952;SDS011;20231;42.710;23.280;2023-02-28T03:26:58;34.20;;;17.40;;
33952;SDS011;20231;42.710;23.280;2023-02-28T03:29:33;24.88;;;13.70;;
33952;SDS011;20231;42.710;23.280;2023-02-28T03:32:08;32.10;;;17.40;;
33952;SDS011;20231;42.710;23.280;2023-02-28T03:34:49;38.08;;;20.50;;
33952;SDS011;20231;42.710;23.280;2023-02-28T03:37:22;43.10;;;20.20;;
33952;SDS011;20231;42.710;23.280;2023-02-28T03:39:53;37.78;;;19.95;;
33952;SDS011;20231;42.710;23.280;2023-02-28T03:42:24;36.58;;;19.95;;
33952;SDS011;20231;42.710;23.280;2023-02-28T03:44:58;38.45;;;17.98;;
33952;SDS011;20231;42.710;23.280;2023-02-28T03:47:35;34.30;;;17.42;;
33952;SDS011;20231;42.710;23.280;2023-02-28T03:50:21;36.38;;;19.77;;
33952;SDS011;20231;42.710;23.280;2023-02-28T03:53:11;33.47;;;17.83;;
33952;SDS011;20231;42.710;23.280;2023-02-28T03:55:42;35.35;;;17.50;;
33952;SDS011;20231;42.710;23.280;2023-02-28T04:00:46;32.83;;;16.70;;
33952;SDS011;20231;42.710;23.280;2023-02-28T04:03:15;29.38;;;15.63;;
33952;SDS011;20231;42.710;23.280;2023-02-28T04:05:47;27.08;;;15.60;;
33952;SDS011;20231;42.710;23.280;2023-02-28T04:08:16;31.85;;;16.08;;
33952;SDS011;20231;42.710;23.280;2023-02-28T04:10:41;24.67;;;13.55;;
33952;SDS011;20231;42.710;23.280;2023-02-28T04:13:10;32.75;;;14.95;;
33952;SDS011;20231;42.710;23.280;2023-02-28T04:15:35;26.05;;;13.32;;
33952;SDS011;20231;42.710;23.280;2023-02-28T04:18:01;26.42;;;14.63;;
33952;SDS011;20231;42.710;23.280;2023-02-28T04:20:27;24.95;;;13.90;;
33952;SDS011;20231;42.710;23.280;2023-02-28T04:22:53;27.42;;;14.38;;
33952;SDS011;20231;42.710;23.280;2023-02-28T04:25:18;24.42;;;12.70;;
33952;SDS011;20231;42.710;23.280;2023-02-28T04:27:43;18.35;;;12.05;;
33952;SDS011;20231;42.710;23.280;2023-02-28T04:30:10;22.30;;;12.55;;
33952;SDS011;20231;42.710;23.280;2023-02-28T04:32:35;21.65;;;12.43;;
33952;SDS011;20231;42.710;23.280;2023-02-28T04:35:01;20.35;;;11.52;;
33952;SDS011;20231;42.710;23.280;2023-02-28T04:37:27;28.42;;;14.85;;
33952;SDS011;20231;42.710;23.280;2023-02-28T04:39:53;29.42;;;17.83;;
33952;SDS011;20231;42.710;23.280;2023-02-28T04:42:19;31.77;;;16.48;;
33952;SDS011;20231;42.710;23.280;2023-02-28T04:44:45;28.15;;;14.82;;
33952;SDS011;20231;42.710;23.280;2023-02-28T04:47:10;30.52;;;15.95;;
33952;SDS011;20231;42.710;23.280;2023-02-28T04:49:36;30.45;;;15.77;;
33952;SDS011;20231;42.710;23.280;2023-02-28T04:52:01;29.75;;;15.48;;
33952;SDS011;20231;42.710;23.280;2023-02-28T04:54:29;28.50;;;15.70;;
33952;SDS011;20231;42.710;23.280;2023-02-28T04:57:18;28.35;;;14.98;;
33952;SDS011;20231;42.710;23.280;2023-02-28T04:59:43;37.05;;;17.70;;
33952;SDS011;20231;42.710;23.280;2023-02-28T05:02:09;37.17;;;18.58;;
33952;SDS011;20231;42.710;23.280;2023-02-28T05:04:34;34.33;;;18.35;;
33952;SDS011;20231;42.710;23.280;2023-02-28T05:07:01;36.78;;;17.90;;
33952;SDS011;20231;42.710;23.280;2023-02-28T05:09:27;33.30;;;17.60;;
33952;SDS011;20231;42.710;23.280;2023-02-28T05:11:53;39.65;;;19.30;;
33952;SDS011;20231;42.710;23.280;2023-02-28T05:14:19;33.25;;;17.05;;
33952;SDS011;20231;42.710;23.280;2023-02-28T05:16:44;34.60;;;17.00;;
33952;SDS011;20231;42.710;23.280;2023-02-28T05:19:11;34.13;;;17.83;;
33952;SDS011;20231;42.710;23.280;2023-02-28T05:21:37;35.25;;;20.00;;
33952;SDS011;20231;42.710;23.280;2023-02-28T05:24:05;33.08;;;18.15;;
33952;SDS011;20231;42.710;23.280;2023-02-28T05:26:36;37.58;;;18.30;;
33952;SDS011;20231;42.710;23.280;2023-02-28T05:29:03;40.65;;;18.75;;
33952;SDS011;20231;42.710;23.280;2023-02-28T05:31:28;38.85;;;19.45;;
33952;SDS011;20231;42.710;23.280;2023-02-28T05:33:54;43.17;;;18.88;;
33952;SDS011;20231;42.710;23.280;2023-02-28T05:36:19;43.28;;;19.48;;
33952;SDS011;20231;42.710;23.280;2023-02-28T05:38:49;33.75;;;17.77;;
33952;SDS011;20231;42.710;23.280;2023-02-28T05:41:16;28.33;;;16.75;;
33952;SDS011;20231;42.710;23.280;2023-02-28T05:43:42;35.08;;;19.20;;
33952;SDS011;20231;42.710;23.280;2023-02-28T05:46:08;36.08;;;19.58;;
33952;SDS011;20231;42.710;23.280;2023-02-28T05:48:36;36.22;;;19.63;;
33952;SDS011;20231;42.710;23.280;2023-02-28T05:51:03;33.08;;;18.90;;
33952;SDS011;20231;42.710;23.280;2023-02-28T05:53:29;39.13;;;19.98;;
33952;SDS011;20231;42.710;23.280;2023-02-28T05:55:55;35.28;;;18.85;;
33952;SDS011;20231;42.710;23.280;2023-02-28T05:58:21;44.17;;;20.70;;
33952;SDS011;20231;42.710;23.280;2023-02-28T06:00:47;40.25;;;20.05;;
33952;SDS011;20231;42.710;23.280;2023-02-28T06:03:13;39.25;;;20.13;;
33952;SDS011;20231;42.710;23.280;2023-02-28T06:05:38;44.08;;;20.52;;
33952;SDS011;20231;42.710;23.280;2023-02-28T06:08:04;44.08;;;21.58;;
33952;SDS011;20231;42.710;23.280;2023-02-28T06:10:32;42.45;;;21.83;;
33952;SDS011;20231;42.710;23.280;2023-02-28T06:13:01;42.83;;;21.05;;
33952;SDS011;20231;42.710;23.280;2023-02-28T06:15:28;41.97;;;21.15;;
33952;SDS011;20231;42.710;23.280;2023-02-28T06:17:54;47.92;;;21.77;;
33952;SDS011;20231;42.710;23.280;2023-02-28T06:20:22;46.75;;;24.15;;
33952;SDS011;20231;42.710;23.280;2023-02-28T06:22:48;57.20;;;24.33;;
33952;SDS011;20231;42.710;23.280;2023-02-28T06:25:16;47.65;;;22.77;;
33952;SDS011;20231;42.710;23.280;2023-02-28T06:27:42;54.13;;;24.30;;
33952;SDS011;20231;42.710;23.280;2023-02-28T06:30:08;72.43;;;31.98;;
33952;SDS011;20231;42.710;23.280;2023-02-28T06:32:34;52.05;;;25.70;;
33952;SDS011;20231;42.710;23.280;2023-02-28T06:35:01;84.63;;;35.17;;
33952;SDS011;20231;42.710;23.280;2023-02-28T06:37:26;60.33;;;27.95;;
33952;SDS011;20231;42.710;23.280;2023-02-28T06:39:52;55.47;;;28.10;;
33952;SDS011;20231;42.710;23.280;2023-02-28T06:42:18;62.03;;;28.58;;
33952;SDS011;20231;42.710;23.280;2023-02-28T06:44:44;55.08;;;26.55;;
33952;SDS011;20231;42.710;23.280;2023-02-28T06:47:10;61.65;;;27.20;;
33952;SDS011;20231;42.710;23.280;2023-02-28T06:49:35;56.03;;;28.13;;
33952;SDS011;20231;42.710;23.280;2023-02-28T06:52:01;54.47;;;29.13;;
33952;SDS011;20231;42.710;23.280;2023-02-28T06:54:27;60.83;;;29.25;;
33952;SDS011;20231;42.710;23.280;2023-02-28T06:56:52;62.63;;;28.38;;
33952;SDS011;20231;42.710;23.280;2023-02-28T06:59:19;56.33;;;27.75;;
33952;SDS011;20231;42.710;23.280;2023-02-28T07:01:45;56.40;;;29.77;;
33952;SDS011;20231;42.710;23.280;2023-02-28T07:04:10;59.25;;;28.77;;
33952;SDS011;20231;42.710;23.280;2023-02-28T07:06:36;59.85;;;29.10;;
33952;SDS011;20231;42.710;23.280;2023-02-28T07:09:01;59.63;;;27.60;;
33952;SDS011;20231;42.710;23.280;2023-02-28T07:11:28;54.05;;;26.63;;
33952;SDS011;20231;42.710;23.280;2023-02-28T07:13:54;65.85;;;28.65;;
33952;SDS011;20231;42.710;23.280;2023-02-28T07:16:21;65.80;;;28.95;;
33952;SDS011;20231;42.710;23.280;2023-02-28T07:18:47;54.10;;;26.70;;
33952;SDS011;20231;42.710;23.280;2023-02-28T07:21:13;59.38;;;27.65;;
33952;SDS011;20231;42.710;23.280;2023-02-28T07:23:39;57.40;;;27.58;;
33952;SDS011;20231;42.710;23.280;2023-02-28T07:26:05;58.97;;;27.05;;
33952;SDS011;20231;42.710;23.280;2023-02-28T07:28:31;54.40;;;26.52;;
33952;SDS011;20231;42.710;23.280;2023-02-28T07:31:02;57.00;;;26.02;;
33952;SDS011;20231;42.710;23.280;2023-02-28T07:33:28;50.78;;;25.77;;
33952;SDS011;20231;42.710;23.280;2023-02-28T07:35:59;49.53;;;26.02;;
33952;SDS011;20231;42.710;23.280;2023-02-28T07:38:26;54.05;;;26.25;;
33952;SDS011;20231;42.710;23.280;2023-02-28T07:40:51;45.35;;;24.50;;
33952;SDS011;20231;42.710;23.280;2023-02-28T07:43:17;49.47;;;24.67;;
33952;SDS011;20231;42.710;23.280;2023-02-28T07:45:42;47.75;;;25.35;;
33952;SDS011;20231;42.710;23.280;2023-02-28T07:48:07;53.88;;;25.77;;
33952;SDS011;20231;42.710;23.280;2023-02-28T07:50:34;56.80;;;27.92;;
33952;SDS011;20231;42.710;23.280;2023-02-28T07:53:00;55.25;;;27.58;;
33952;SDS011;20231;42.710;23.280;2023-02-28T07:55:25;54.55;;;25.83;;
33952;SDS011;20231;42.710;23.280;2023-02-28T07:57:51;51.67;;;26.67;;
33952;SDS011;20231;42.710;23.280;2023-02-28T08:00:16;51.65;;;25.75;;
33952;SDS011;20231;42.710;23.280;2023-02-28T08:02:42;58.00;;;27.25;;
33952;SDS011;20231;42.710;23.280;2023-02-28T08:05:08;54.67;;;27.10;;
33952;SDS011;20231;42.710;23.280;2023-02-28T08:07:33;53.65;;;27.90;;
33952;SDS011;20231;42.710;23.280;2023-02-28T08:09:59;58.80;;;26.88;;
33952;SDS011;20231;42.710;23.280;2023-02-28T08:12:25;52.10;;;24.55;;
33952;SDS011;20231;42.710;23.280;2023-02-28T08:14:50;50.40;;;26.30;;
33952;SDS011;20231;42.710;23.280;2023-02-28T08:17:18;51.42;;;26.92;;
33952;SDS011;20231;42.710;23.280;2023-02-28T08:19:46;52.40;;;27.85;;
33952;SDS011;20231;42.710;23.280;2023-02-28T08:22:12;58.92;;;27.40;;
33952;SDS011;20231;42.710;23.280;2023-02-28T08:24:37;56.45;;;28.45;;
33952;SDS011;20231;42.710;23.280;2023-02-28T08:27:02;60.05;;;28.15;;
33952;SDS011;20231;42.710;23.280;2023-02-28T08:29:28;66.30;;;29.98;;
33952;SDS011;20231;42.710;23.280;2023-02-28T08:31:55;57.55;;;30.13;;
33952;SDS011;20231;42.710;23.280;2023-02-28T08:34:20;52.90;;;28.38;;
33952;SDS011;20231;42.710;23.280;2023-02-28T08:36:46;54.85;;;27.40;;
33952;SDS011;20231;42.710;23.280;2023-02-28T08:39:12;68.18;;;32.88;;
33952;SDS011;20231;42.710;23.280;2023-02-28T08:41:37;63.40;;;31.20;;
33952;SDS011;20231;42.710;23.280;2023-02-28T08:44:03;64.95;;;32.75;;
33952;SDS011;20231;42.710;23.280;2023-02-28T08:46:28;69.18;;;33.63;;
33952;SDS011;20231;42.710;23.280;2023-02-28T08:48:54;58.88;;;31.70;;
33952;SDS011;20231;42.710;23.280;2023-02-28T08:51:21;63.08;;;30.88;;
33952;SDS011;20231;42.710;23.280;2023-02-28T08:53:51;60.83;;;29.98;;
33952;SDS011;20231;42.710;23.280;2023-02-28T08:56:21;60.58;;;28.08;;
33952;SDS011;20231;42.710;23.280;2023-02-28T08:58:47;54.65;;;27.10;;
33952;SDS011;20231;42.710;23.280;2023-02-28T09:01:18;70.55;;;30.60;;
33952;SDS011;20231;42.710;23.280;2023-02-28T09:03:45;58.75;;;29.00;;
33952;SDS011;20231;42.710;23.280;2023-02-28T09:06:12;52.67;;;28.02;;
33952;SDS011;20231;42.710;23.280;2023-02-28T09:08:38;55.55;;;28.77;;
33952;SDS011;20231;42.710;23.280;2023-02-28T09:11:04;52.33;;;28.45;;
33952;SDS011;20231;42.710;23.280;2023-02-28T09:13:30;52.53;;;27.80;;
33952;SDS011;20231;42.710;23.280;2023-02-28T09:15:58;55.42;;;28.52;;
33952;SDS011;20231;42.710;23.280;2023-02-28T09:18:25;54.95;;;28.23;;
33952;SDS011;20231;42.710;23.280;2023-02-28T09:20:51;54.47;;;28.27;;
33952;SDS011;20231;42.710;23.280;2023-02-28T09:23:17;58.85;;;28.73;;
33952;SDS011;20231;42.710;23.280;2023-02-28T09:25:49;61.03;;;28.83;;
33952;SDS011;20231;42.710;23.280;2023-02-28T09:28:16;51.25;;;26.60;;
33952;SDS011;20231;42.710;23.280;2023-02-28T09:30:42;55.15;;;28.98;;
33952;SDS011;20231;42.710;23.280;2023-02-28T09:33:10;62.78;;;30.63;;
33952;SDS011;20231;42.710;23.280;2023-02-28T09:35:36;67.40;;;32.22;;
33952;SDS011;20231;42.710;23.280;2023-02-28T09:38:02;57.83;;;30.25;;
33952;SDS011;20231;42.710;23.280;2023-02-28T09:40:29;55.25;;;29.05;;
33952;SDS011;20231;42.710;23.280;2023-02-28T09:42:55;60.53;;;29.20;;
33952;SDS011;20231;42.710;23.280;2023-02-28T09:45:30;59.35;;;30.75;;
33952;SDS011;20231;42.710;23.280;2023-02-28T09:48:07;62.88;;;31.73;;
33952;SDS011;20231;42.710;23.280;2023-02-28T09:50:41;49.85;;;29.10;;
33952;SDS011;20231;42.710;23.280;2023-02-28T09:53:19;57.78;;;30.50;;
33952;SDS011;20231;42.710;23.280;2023-02-28T09:55:53;63.75;;;31.30;;
33952;SDS011;20231;42.710;23.280;2023-02-28T09:58:31;64.80;;;30.65;;
33952;SDS011;20231;42.710;23.280;2023-02-28T10:01:10;64.75;;;30.63;;
33952;SDS011;20231;42.710;23.280;2023-02-28T10:04:08;69.18;;;33.85;;
33952;SDS011;20231;42.710;23.280;2023-02-28T10:06:53;77.15;;;34.97;;
33952;SDS011;20231;42.710;23.280;2023-02-28T10:09:19;62.22;;;33.40;;
33952;SDS011;20231;42.710;23.280;2023-02-28T10:11:50;62.92;;;31.30;;
33952;SDS011;20231;42.710;23.280;2023-02-28T10:19:35;64.03;;;32.55;;
33952;SDS011;20231;42.710;23.280;2023-02-28T10:22:14;57.60;;;30.73;;
33952;SDS011;20231;42.710;23.280;2023-02-28T10:24:45;57.35;;;28.77;;
33952;SDS011;20231;42.710;23.280;2023-02-28T10:27:24;57.33;;;29.48;;
33952;SDS011;20231;42.710;23.280;2023-02-28T10:29:57;53.70;;;26.35;;
33952;SDS011;20231;42.710;23.280;2023-02-28T10:37:27;38.03;;;15.68;;
33952;SDS011;20231;42.710;23.280;2023-02-28T10:39:53;25.33;;;13.63;;
33952;SDS011;20231;42.710;23.280;2023-02-28T10:47:31;28.75;;;13.32;;
33952;SDS011;20231;42.710;23.280;2023-02-28T10:49:59;38.10;;;14.40;;
33952;SDS011;20231;42.710;23.280;2023-02-28T10:52:32;37.92;;;12.85;;
33952;SDS011;20231;42.710;23.280;2023-02-28T10:55:21;32.35;;;13.63;;
33952;SDS011;20231;42.710;23.280;2023-02-28T10:57:54;37.30;;;13.45;;
33952;SDS011;20231;42.710;23.280;2023-02-28T11:00:21;34.50;;;12.60;;
33952;SDS011;20231;42.710;23.280;2023-02-28T11:02:51;31.48;;;13.40;;
33952;SDS011;20231;42.710;23.280;2023-02-28T11:05:23;31.42;;;12.60;;
33952;SDS011;20231;42.710;23.280;2023-02-28T11:08:05;41.30;;;13.25;;
33952;SDS011;20231;42.710;23.280;2023-02-28T11:11:14;30.15;;;12.55;;
33952;SDS011;20231;42.710;23.280;2023-02-28T11:13:34;38.50;;;13.38;;
33952;SDS011;20231;42.710;23.280;2023-02-28T11:16:04;39.40;;;13.00;;
33952;SDS011;20231;42.710;23.280;2023-02-28T11:21:27;33.08;;;13.50;;
33952;SDS011;20231;42.710;23.280;2023-02-28T11:24:23;33.50;;;13.70;;
33952;SDS011;20231;42.710;23.280;2023-02-28T11:26:58;31.35;;;14.07;;
33952;SDS011;20231;42.710;23.280;2023-02-28T11:32:12;34.17;;;13.88;;
33952;SDS011;20231;42.710;23.280;2023-02-28T11:34:46;29.63;;;12.93;;
33952;SDS011;20231;42.710;23.280;2023-02-28T11:37:24;32.63;;;14.18;;
33952;SDS011;20231;42.710;23.280;2023-02-28T11:39:52;28.02;;;13.52;;
33952;SDS011;20231;42.710;23.280;2023-02-28T11:47:44;32.20;;;12.73;;
33952;SDS011;20231;42.710;23.280;2023-02-28T11:52:54;31.40;;;13.90;;
33952;SDS011;20231;42.710;23.280;2023-02-28T12:00:40;36.28;;;12.82;;
33952;SDS011;20231;42.710;23.280;2023-02-28T12:05:44;34.05;;;13.82;;
33952;SDS011;20231;42.710;23.280;2023-02-28T12:11:11;34.67;;;14.27;;
33952;SDS011;20231;42.710;23.280;2023-02-28T12:14:05;32.80;;;13.50;;
33952;SDS011;20231;42.710;23.280;2023-02-28T12:17:11;38.80;;;13.32;;
33952;SDS011;20231;42.710;23.280;2023-02-28T12:22:49;36.40;;;11.77;;
33952;SDS011;20231;42.710;23.280;2023-02-28T12:28:03;27.88;;;11.18;;
33952;SDS011;20231;42.710;23.280;2023-02-28T12:30:32;32.03;;;10.98;;
33952;SDS011;20231;42.710;23.280;2023-02-28T12:33:05;31.67;;;11.77;;
33952;SDS011;20231;42.710;23.280;2023-02-28T12:35:50;28.73;;;10.73;;
33952;SDS011;20231;42.710;23.280;2023-02-28T12:41:13;28.65;;;11.40;;
33952;SDS011;20231;42.710;23.280;2023-02-28T12:43:46;23.35;;;12.32;;
33952;SDS011;20231;42.710;23.280;2023-02-28T12:46:21;34.55;;;11.32;;
33952;SDS011;20231;42.710;23.280;2023-02-28T12:48:58;27.40;;;12.10;;
33952;SDS011;20231;42.710;23.280;2023-02-28T12:51:27;34.10;;;12.55;;
33952;SDS011;20231;42.710;23.280;2023-02-28T13:02:09;25.17;;;10.82;;
33952;SDS011;20231;42.710;23.280;2023-02-28T13:10:58;35.65;;;10.73;;
33952;SDS011;20231;42.710;23.280;2023-02-28T13:13:27;34.05;;;11.25;;
33952;SDS011;20231;42.710;23.280;2023-02-28T13:15:59;26.90;;;10.98;;
33952;SDS011;20231;42.710;23.280;2023-02-28T13:18:31;29.63;;;11.02;;
33952;SDS011;20231;42.710;23.280;2023-02-28T13:26:24;32.13;;;11.48;;
33952;SDS011;20231;42.710;23.280;2023-02-28T13:35:34;28.80;;;9.82;;
33952;SDS011;20231;42.710;23.280;2023-02-28T13:37:34;38.53;;;11.35;;
33952;SDS011;20231;42.710;23.280;2023-02-28T13:42:35;22.88;;;10.18;;
33952;SDS011;20231;42.710;23.280;2023-02-28T13:47:40;33.72;;;11.70;;
33952;SDS011;20231;42.710;23.280;2023-02-28T13:55:53;30.10;;;11.48;;
33952;SDS011;20231;42.710;23.280;2023-02-28T14:06:56;29.85;;;12.00;;
33952;SDS011;20231;42.710;23.280;2023-02-28T14:09:30;25.13;;;11.15;;
33952;SDS011;20231;42.710;23.280;2023-02-28T14:15:02;27.65;;;10.10;;
33952;SDS011;20231;42.710;23.280;2023-02-28T14:17:28;28.48;;;10.98;;
33952;SDS011;20231;42.710;23.280;2023-02-28T14:19:54;21.92;;;10.90;;
33952;SDS011;20231;42.710;23.280;2023-02-28T14:25:21;26.15;;;9.65;;
33952;SDS011;20231;42.710;23.280;2023-02-28T14:30:45;28.95;;;11.20;;
33952;SDS011;20231;42.710;23.280;2023-02-28T14:36:10;27.25;;;11.38;;
33952;SDS011;20231;42.710;23.280;2023-02-28T14:43:56;29.20;;;10.02;;
33952;SDS011;20231;42.710;23.280;2023-02-28T14:46:30;26.55;;;10.82;;
33952;SDS011;20231;42.710;23.280;2023-02-28T14:49:03;29.55;;;10.52;;
33952;SDS011;20231;42.710;23.280;2023-02-28T14:51:30;32.38;;;11.25;;
33952;SDS011;20231;42.710;23.280;2023-02-28T14:53:57;23.92;;;11.38;;
33952;SDS011;20231;42.710;23.280;2023-02-28T14:56:42;22.92;;;9.90;;
33952;SDS011;20231;42.710;23.280;2023-02-28T14:59:24;27.38;;;10.93;;
33952;SDS011;20231;42.710;23.280;2023-02-28T15:01:50;32.22;;;10.05;;
33952;SDS011;20231;42.710;23.280;2023-02-28T15:04:20;25.23;;;10.05;;
33952;SDS011;20231;42.710;23.280;2023-02-28T15:09:34;30.45;;;11.32;;
33952;SDS011;20231;42.710;23.280;2023-02-28T15:12:00;24.90;;;11.00;;
33952;SDS011;20231;42.710;23.280;2023-02-28T15:14:25;36.63;;;10.10;;
33952;SDS011;20231;42.710;23.280;2023-02-28T15:16:55;27.58;;;11.00;;
33952;SDS011;20231;42.710;23.280;2023-02-28T15:19:27;30.80;;;10.73;;
33952;SDS011;20231;42.710;23.280;2023-02-28T15:21:57;23.90;;;9.73;;
33952;SDS011;20231;42.710;23.280;2023-02-28T15:24:30;22.63;;;10.35;;
33952;SDS011;20231;42.710;23.280;2023-02-28T15:27:26;18.55;;;9.73;;
33952;SDS011;20231;42.710;23.280;2023-02-28T15:29:58;24.33;;;10.00;;
33952;SDS011;20231;42.710;23.280;2023-02-28T15:34:53;25.50;;;11.48;;
33952;SDS011;20231;42.710;23.280;2023-02-28T15:39:58;15.95;;;9.73;;
33952;SDS011;20231;42.710;23.280;2023-02-28T15:43:04;22.95;;;10.00;;
33952;SDS011;20231;42.710;23.280;2023-02-28T15:45:32;20.73;;;10.43;;
33952;SDS011;20231;42.710;23.280;2023-02-28T15:48:29;19.58;;;11.00;;
33952;SDS011;20231;42.710;23.280;2023-02-28T15:51:01;20.48;;;10.50;;
33952;SDS011;20231;42.710;23.280;2023-02-28T15:53:33;25.38;;;12.23;;
33952;SDS011;20231;42.710;23.280;2023-02-28T15:56:21;24.33;;;11.38;;
33952;SDS011;20231;42.710;23.280;2023-02-28T15:58:57;18.08;;;10.15;;
33952;SDS011;20231;42.710;23.280;2023-02-28T16:01:26;20.08;;;10.40;;
33952;SDS011;20231;42.710;23.280;2023-02-28T16:03:59;17.48;;;9.95;;
33952;SDS011;20231;42.710;23.280;2023-02-28T16:09:02;17.05;;;9.02;;
33952;SDS011;20231;42.710;23.280;2023-02-28T16:11:37;18.33;;;10.52;;
33952;SDS011;20231;42.710;23.280;2023-02-28T16:14:06;16.55;;;9.35;;
33952;SDS011;20231;42.710;23.280;2023-02-28T16:16:41;21.70;;;9.43;;
33952;SDS011;20231;42.710;23.280;2023-02-28T16:19:07;16.63;;;9.65;;
33952;SDS011;20231;42.710;23.280;2023-02-28T16:21:33;15.82;;;9.38;;
33952;SDS011;20231;42.710;23.280;2023-02-28T16:23:58;13.90;;;8.35;;
33952;SDS011;20231;42.710;23.280;2023-02-28T16:26:24;14.27;;;9.48;;
33952;SDS011;20231;42.710;23.280;2023-02-28T16:28:52;16.77;;;8.90;;
33952;SDS011;20231;42.710;23.280;2023-02-28T16:31:18;18.98;;;8.50;;
33952;SDS011;20231;42.710;23.280;2023-02-28T16:33:45;17.70;;;8.07;;
33952;SDS011;20231;42.710;23.280;2023-02-28T16:36:15;17.55;;;8.02;;
33952;SDS011;20231;42.710;23.280;2023-02-28T16:38:43;13.40;;;7.47;;
33952;SDS011;20231;42.710;23.280;2023-02-28T16:41:10;10.95;;;7.95;;
33952;SDS011;20231;42.710;23.280;2023-02-28T16:43:44;16.00;;;8.05;;
33952;SDS011;20231;42.710;23.280;2023-02-28T16:46:11;14.52;;;8.13;;
33952;SDS011;20231;42.710;23.280;2023-02-28T16:48:37;20.45;;;8.13;;
33952;SDS011;20231;42.710;23.280;2023-02-28T16:51:04;15.88;;;7.85;;
33952;SDS011;20231;42.710;23.280;2023-02-28T16:53:30;16.25;;;7.55;;
33952;SDS011;20231;42.710;23.280;2023-02-28T16:55:55;18.83;;;8.43;;
33952;SDS011;20231;42.710;23.280;2023-02-28T16:58:20;13.57;;;7.28;;
33952;SDS011;20231;42.710;23.280;2023-02-28T17:00:48;14.43;;;7.03;;